Time;durP1;ratioP1;P1;durP2;ratioP2;P2;SDS_P1;SDS_P2;PMS_P1;PMS_P2;Temp;Humidity;BMP_temperature;BMP_pressure;BME280_temperature;BME280_humidity;BME280_pressure;Samples;Min_cycle;Max_cycle;Signal;HPM_P1;HPM_P2
2022/09/16 00:02:39;;;;;;;;;6.25;6.25;;;;;23.81;53.56;100532.22;146614;631;47014;-77
2022/09/16 00:05:39;;;;;;;;;5.25;5.25;;;;;23.89;53.27;100537.47;146611;597;47013;-73
2022/09/16 00:08:38;;;;;;;;;7.00;7.00;;;;;23.95;53.86;100535.66;146616;645;47010;-73
2022/09/16 00:11:40;;;;;;;;;6.67;6.67;;;;;23.94;54.37;100527.72;146611;678;46016;-76
2022/09/16 00:14:38;;;;;;;;;8.00;7.67;;;;;23.84;55.76;100518.97;146616;674;47010;-81
2022/09/16 00:17:41;;;;;;;;;9.33;9.00;;;;;23.78;56.16;100521.66;146609;608;47016;-81
2022/09/16 00:20:34;;;;;;;;;10.00;8.67;;;;;23.74;57.02;100519.91;146617;661;46010;-80
2022/09/16 00:23:26;;;;;;;;;9.00;8.00;;;;;23.71;56.87;100507.56;146610;594;47014;-81
2022/09/16 00:26:24;;;;;;;;;8.67;8.67;;;;;23.71;56.45;100510.22;146603;577;46020;-81
2022/09/16 00:29:25;;;;;;;;;9.00;9.00;;;;;23.72;56.32;100498.75;146602;651;48012;-73
2022/09/16 00:32:20;;;;;;;;;9.50;8.50;;;;;23.74;56.20;100501.41;146618;665;46020;-74
2022/09/16 00:35:30;;;;;;;;;7.33;7.00;;;;;23.77;57.17;100495.16;146613;569;46017;-73
2022/09/16 00:38:25;;;;;;;;;10.00;9.00;;;;;23.79;56.96;100501.34;146616;611;46010;-77
2022/09/16 00:41:36;;;;;;;;;8.00;7.00;;;;;23.82;55.88;100503.97;146611;568;47012;-78
2022/09/16 00:45:09;;;;;;;;;12.75;9.00;;;;;23.87;55.29;100499.53;146612;578;47010;-77
2022/09/16 00:48:12;;;;;;;;;10.00;8.75;;;;;23.90;55.83;100513.62;146612;719;46012;-81
2022/09/16 00:51:15;;;;;;;;;8.50;8.00;;;;;23.90;56.08;100504.81;146619;674;46011;-79
2022/09/16 00:54:19;;;;;;;;;10.50;9.75;;;;;23.84;56.28;100511.03;146609;661;46012;-79
2022/09/16 00:57:31;;;;;;;;;10.00;7.00;;;;;23.77;56.30;100511.97;146613;582;46020;-79
2022/09/16 01:00:39;;;;;;;;;9.00;9.00;;;;;23.69;56.87;100501.41;146613;614;46016;-80
2022/09/16 01:03:48;;;;;;;;;7.75;7.75;;;;;23.65;57.87;100501.41;146617;653;46020;-81
2022/09/16 01:06:53;;;;;;;;;7.00;7.00;;;;;23.52;57.05;100498.84;146612;641;46915;-80
2022/09/16 01:09:48;;;;;;;;;8.00;8.00;;;;;23.43;57.61;100493.59;146618;604;46020;-79
2022/09/16 01:13:13;;;;;;;;;8.50;8.50;;;;;23.35;56.49;100490.09;146610;691;46014;-80
2022/09/16 01:16:17;;;;;;;;;9.00;9.00;;;;;23.31;57.12;100487.47;146620;622;46020;-82
2022/09/16 01:20:04;;;;;;;;;9.00;7.00;;;;;22.32;56.18;100321.28;146620;588;45915;-81
2022/09/16 01:23:37;;;;;;;;;11.00;7.75;;;;;21.68;55.70;100210.53;146619;566;46010;-82
2022/09/16 01:27:07;;;;;;;;;7.25;7.00;;;;;23.39;55.76;100491.81;146618;571;46016;-82
2022/09/16 01:30:27;;;;;;;;;8.33;8.33;;;;;22.73;55.03;100364.28;146612;680;47010;-81
2022/09/16 01:33:51;;;;;;;;;8.25;6.00;;;;;23.51;55.81;100486.47;146611;663;47012;-79
2022/09/16 01:36:54;;;;;;;;;7.00;6.33;;;;;23.55;55.07;100486.44;146623;661;46020;-71
2022/09/16 01:40:19;;;;;;;;;7.75;7.75;;;;;21.88;54.59;100203.47;146610;589;47012;-72
2022/09/16 01:43:57;;;;;;;;;;;;;;;;;;;;;
2022/09/16 01:47:20;;;;;;;;;6.67;6.67;;;;;23.42;54.46;100489.16;146634;592;45014;-75
2022/09/16 01:50:34;;;;;;;;;6.00;6.00;;;;;23.36;55.60;100498.91;146635;625;45021;-75
2022/09/16 01:54:13;;;;;;;;;7.50;7.50;;;;;23.24;55.53;100503.38;146633;577;46014;-73
2022/09/16 01:57:22;;;;;;;;;8.00;6.00;;;;;23.12;57.72;100503.44;146637;600;45021;-74
2022/09/16 02:00:20;;;;;;;;;8.33;6.33;;;;;22.97;57.81;100500.84;146631;653;46014;-73
2022/09/16 02:03:23;;;;;;;;;10.25;9.25;;;;;22.85;58.57;100501.69;146626;577;46010;-74
2022/09/16 02:06:39;;;;;;;;;8.75;8.75;;;;;21.65;57.36;100314.34;146632;624;45915;-74
2022/09/16 02:09:56;;;;;;;;;;;;;;;;;;;;;
2022/09/16 02:12:56;;;;;;;;;8.00;8.00;;;;;22.63;58.34;100482.38;146632;564;46012;-76
2022/09/16 02:16:13;;;;;;;;;;;;;;;;;;;;;
2022/09/16 02:19:16;;;;;;;;;10.50;9.00;;;;;22.53;58.22;100480.63;146630;622;45912;-75
2022/09/16 02:22:54;;;;;;;;;11.25;10.00;;;;;21.50;57.66;100308.19;146635;690;45020;-76
2022/09/16 02:25:58;;;;;;;;;9.25;7.50;;;;;22.50;58.88;100476.22;146633;572;45016;-74
2022/09/16 02:28:55;;;;;;;;;12.25;11.50;;;;;22.48;58.72;100491.19;146633;686;46010;-77
2022/09/16 02:31:51;;;;;;;;;11.00;9.00;;;;;22.49;59.15;100490.34;146632;585;45914;-73
2022/09/16 02:35:17;;;;;;;;;;;;;;;;;;;;;
2022/09/16 02:38:28;;;;;;;;;9.00;9.00;;;;;22.44;58.88;100494.72;146629;578;46014;-78
2022/09/16 02:41:30;;;;;;;;;8.00;8.00;;;;;22.38;58.46;100502.66;146625;678;46021;-77
2022/09/16 02:44:25;;;;;;;;;9.75;8.50;;;;;22.35;58.88;100498.25;146611;613;46914;-79
2022/09/16 02:47:43;;;;;;;;;9.67;8.67;;;;;22.35;58.27;100492.09;146614;619;46020;-77
2022/09/16 02:50:54;;;;;;;;;9.00;8.00;;;;;22.35;57.79;100497.38;146611;670;46915;-78
2022/09/16 02:54:27;;;;;;;;;7.67;6.67;;;;;21.38;57.47;100336.31;146617;563;46020;-79
2022/09/16 02:57:38;;;;;;;;;8.00;8.00;;;;;22.37;57.90;100498.28;146612;642;46017;-78
2022/09/16 03:00:34;;;;;;;;;9.75;8.75;;;;;22.37;58.77;100482.41;146614;635;46020;-78
2022/09/16 03:03:43;;;;;;;;;9.25;8.50;;;;;22.39;58.83;100488.56;146611;707;46013;-77
2022/09/16 03:06:35;;;;;;;;;8.00;8.00;;;;;22.36;58.28;100486.78;146603;676;46020;-77
2022/09/16 03:09:30;;;;;;;;;6.25;5.25;;;;;22.36;57.99;100491.19;146612;647;46016;-79
2022/09/16 03:13:00;;;;;;;;;5.50;5.25;;;;;22.38;56.82;100476.25;146616;709;46021;-72
2022/09/16 03:16:23;;;;;;;;;9.00;8.00;;;;;22.45;56.72;100475.34;146612;591;46012;-72
2022/09/16 03:19:44;;;;;;;;;8.00;6.25;;;;;22.49;57.34;100474.47;146617;595;46021;-73
2022/09/16 03:23:29;;;;;;;;;8.00;7.00;;;;;21.51;56.73;100310.81;146612;696;46016;-72
2022/09/16 03:27:20;;;;;;;;;8.00;6.00;;;;;22.49;56.67;100474.47;146614;583;46022;-72
2022/09/16 03:30:36;;;;;;;;;10.25;9.00;;;;;21.38;57.39;100277.41;146612;713;46016;-73
2022/09/16 03:33:53;;;;;;;;;10.25;8.75;;;;;22.56;57.25;100468.28;146616;589;46015;-79
2022/09/16 03:37:08;;;;;;;;;11.00;10.00;;;;;22.62;58.29;100466.50;146610;571;46039;-79
2022/09/16 03:40:12;;;;;;;;;8.00;6.75;;;;;22.67;59.11;100472.66;146603;735;46029;-78
2022/09/16 03:43:15;;;;;;;;;9.25;9.00;;;;;22.71;59.19;100475.31;146608;656;46915;-73
2022/09/16 03:46:19;;;;;;;;;9.75;9.00;;;;;22.73;58.33;100488.50;146617;619;46010;-75
2022/09/16 03:49:12;;;;;;;;;8.75;8.50;;;;;22.76;59.11;100486.75;146610;626;46013;-71
2022/09/16 03:52:06;;;;;;;;;9.25;8.50;;;;;22.79;59.09;100486.72;146620;594;47010;-73
2022/09/16 03:55:01;;;;;;;;;11.25;9.00;;;;;22.82;59.82;100494.66;146610;638;47012;-73
2022/09/16 03:57:56;;;;;;;;;9.50;8.25;;;;;22.79;59.57;100478.81;146613;577;47010;-76
2022/09/16 04:01:02;;;;;;;;;11.00;11.00;;;;;22.79;60.98;100480.56;146606;585;47031;-74
2022/09/16 04:03:58;;;;;;;;;12.00;10.00;;;;;22.74;60.84;100482.34;146609;572;46020;-75
2022/09/16 04:06:54;;;;;;;;;11.75;9.00;;;;;22.72;60.06;100487.63;146605;645;46016;-72
2022/09/16 04:09:55;;;;;;;;;12.00;12.00;;;;;22.71;60.17;100479.69;146605;679;46021;-73
2022/09/16 04:12:54;;;;;;;;;12.75;11.25;;;;;22.76;61.15;100483.22;146605;572;46016;-71
2022/09/16 04:15:52;;;;;;;;;11.75;10.75;;;;;22.71;60.41;100490.28;146607;611;46010;-72
2022/09/16 04:18:52;;;;;;;;;14.50;13.25;;;;;22.67;61.20;100489.41;146603;569;46017;-71
2022/09/16 04:21:57;;;;;;;;;13.25;13.25;;;;;22.66;61.05;100487.66;146612;705;46020;-70
2022/09/16 04:24:52;;;;;;;;;11.75;11.25;;;;;22.63;60.80;100489.44;146607;704;46034;-74
2022/09/16 04:27:47;;;;;;;;;10.50;9.50;;;;;22.59;60.92;100485.91;146610;602;47010;-75
2022/09/16 04:30:42;;;;;;;;;11.25;7.75;;;;;22.58;59.86;100477.06;146612;665;46915;-75
2022/09/16 04:33:53;;;;;;;;;8.75;7.75;;;;;21.62;58.79;100319.63;146618;572;46020;-78
2022/09/16 04:36:45;;;;;;;;;9.00;7.50;;;;;22.66;59.96;100505.28;146612;627;46016;-78
2022/09/16 04:39:41;;;;;;;;;10.00;10.00;;;;;22.69;59.80;100510.56;146607;578;47015;-78
2022/09/16 04:42:45;;;;;;;;;9.25;7.00;;;;;22.78;58.92;100523.75;146634;597;46914;-73
2022/09/16 04:45:37;;;;;;;;;8.25;7.25;;;;;22.81;59.64;100524.63;146634;564;45014;-72
2022/09/16 04:48:38;;;;;;;;;11.50;8.25;;;;;22.81;58.99;100534.31;146634;565;45914;-73
2022/09/16 04:51:41;;;;;;;;;8.25;8.25;;;;;22.89;58.81;100527.25;146634;649;46010;-72
2022/09/16 04:54:44;;;;;;;;;9.75;9.00;;;;;23.15;58.67;100526.34;146630;683;46016;-72
2022/09/16 04:57:49;;;;;;;;;13.25;11.75;;;;;22.65;58.07;100389.84;146637;583;45020;-72
2022/09/16 05:00:41;;;;;;;;;12.75;11.75;;;;;23.92;58.14;100542.75;146630;611;45913;-73
2022/09/16 05:03:48;;;;;;;;;11.75;10.50;;;;;24.45;56.32;100546.78;146636;572;45021;-74
2022/09/16 05:07:02;;;;;;;;;9.00;8.75;;;;;23.95;54.18;100375.87;146627;637;46913;-72
2022/09/16 05:09:54;;;;;;;;;13.00;10.25;;;;;25.02;55.12;100531.22;146627;585;45021;-73
2022/09/16 05:12:54;;;;;;;;;10.25;10.00;;;;;25.11;55.08;100538.19;146632;689;45915;-74
2022/09/16 05:15:59;;;;;;;;;11.00;11.00;;;;;24.36;55.90;100394.03;146628;716;47010;-76
2022/09/16 05:18:59;;;;;;;;;10.00;8.75;;;;;25.21;55.25;100531.91;146630;597;46012;-74
2022/09/16 05:21:57;;;;;;;;;11.00;11.00;;;;;25.24;54.83;100529.22;146638;643;45020;-71
2022/09/16 05:24:50;;;;;;;;;8.00;7.25;;;;;25.29;55.52;100538.00;146631;608;46012;-73
2022/09/16 05:27:42;;;;;;;;;12.75;9.50;;;;;25.33;55.54;100531.78;146634;634;45020;-75
2022/09/16 05:30:53;;;;;;;;;9.50;8.75;;;;;25.41;54.65;100525.47;146633;659;45893;-76
2022/09/16 05:33:49;;;;;;;;;9.75;9.50;;;;;25.55;55.98;100523.53;146636;584;45010;-72
2022/09/16 05:36:52;;;;;;;;;9.00;8.25;;;;;25.78;54.97;100525.84;146632;612;45916;-77
2022/09/16 05:40:00;;;;;;;;;11.25;9.00;;;;;26.07;53.77;100528.09;146628;582;46011;-76
2022/09/16 05:42:47;;;;;;;;;8.25;7.25;;;;;26.31;53.94;100518.84;146710;583;46014;-76
2022/09/16 05:45:58;;;;;;;;;9.00;9.00;;;;;25.25;52.58;100299.25;146625;566;46021;-76
2022/09/16 05:48:52;;;;;;;;;9.00;8.00;;;;;26.79;53.51;100515.37;146629;618;47010;-72
2022/09/16 05:51:45;;;;;;;;;11.67;8.00;;;;;26.99;53.27;100520.34;146627;626;46914;-71
2022/09/16 05:54:42;;;;;;;;;10.75;10.00;;;;;27.16;52.21;100527.09;146626;629;46012;-75
2022/09/16 05:57:39;;;;;;;;;11.25;10.75;;;;;27.31;51.72;100533.88;146614;655;46016;-75
2022/09/16 06:00:23;;;;;;;;;10.00;9.50;;;;;27.46;51.55;100532.69;146712;580;45015;-74
2022/09/16 06:03:17;;;;;;;;;12.75;11.75;;;;;26.84;50.64;100399.13;146627;564;46014;-78
2022/09/16 06:06:43;;;;;;;;;11.00;10.00;;;;;27.77;50.29;100529.38;146622;629;46012;-81
2022/09/16 06:09:38;;;;;;;;;18.00;14.50;;;;;27.92;49.00;100526.38;146621;647;46014;-79
2022/09/16 06:12:34;;;;;;;;;12.75;12.25;;;;;27.98;49.27;100520.03;146622;668;46020;-81
2022/09/16 06:15:35;;;;;;;;;13.00;13.00;;;;;28.07;48.68;100515.34;146619;571;46017;-80
2022/09/16 06:18:37;;;;;;;;;9.25;9.25;;;;;28.14;48.97;100518.75;146623;575;46010;-71
2022/09/16 06:21:42;;;;;;;;;11.50;11.00;;;;;28.20;49.40;100515.06;146625;565;46012;-70
2022/09/16 06:24:50;;;;;;;;;12.00;10.00;;;;;28.33;49.46;100519.16;146623;653;46021;-69
2022/09/16 06:27:52;;;;;;;;;10.75;10.50;;;;;28.48;49.03;100520.59;146620;577;46016;-71
2022/09/16 06:30:53;;;;;;;;;11.50;9.25;;;;;28.61;49.38;100522.03;146622;564;46021;-72
2022/09/16 06:33:56;;;;;;;;;12.75;11.00;;;;;28.71;49.04;100520.84;146624;563;46012;-72
2022/09/16 06:36:58;;;;;;;;;7.50;7.50;;;;;28.87;48.55;100517.78;146623;575;46010;-72
2022/09/16 06:39:55;;;;;;;;;13.25;12.75;;;;;29.02;48.34;100511.16;146622;586;46017;-71
2022/09/16 06:43:01;;;;;;;;;13.50;12.75;;;;;29.14;48.71;100511.69;146621;584;46010;-71
2022/09/16 06:46:06;;;;;;;;;12.00;12.00;;;;;29.21;48.81;100512.38;146618;634;46013;-70
2022/09/16 06:49:01;;;;;;;;;14.50;10.50;;;;;29.33;48.51;100506.69;146701;564;46023;-70
2022/09/16 06:51:55;;;;;;;;;12.25;11.00;;;;;29.46;48.81;100502.72;146612;563;46016;-71
2022/09/16 06:54:48;;;;;;;;;10.25;10.25;;;;;29.57;48.08;100502.41;146612;605;48010;-71
2022/09/16 06:57:40;;;;;;;;;12.50;12.50;;;;;29.71;47.72;100506.47;146612;689;46017;-72
2022/09/16 07:00:32;;;;;;;;;10.75;10.75;;;;;29.81;47.16;100508.78;146614;649;46020;-71
2022/09/16 07:03:24;;;;;;;;;10.50;10.50;;;;;29.88;47.30;100520.19;146611;578;46016;-72
2022/09/16 07:06:04;;;;;;;;;11.75;11.50;;;;;29.90;46.81;100518.31;146710;564;46014;-72
2022/09/16 07:09:00;;;;;;;;;12.50;10.50;;;;;29.90;47.54;100518.31;146619;586;46014;-70
2022/09/16 07:12:04;;;;;;;;;13.75;13.75;;;;;29.93;47.57;100515.56;146622;593;46011;-70
2022/09/16 07:15:09;;;;;;;;;11.75;11.00;;;;;29.99;47.39;100517.16;146615;612;46016;-70
2022/09/16 07:18:11;;;;;;;;;17.00;14.25;;;;;30.06;47.57;100508.91;146622;566;46021;-70
2022/09/16 07:21:09;;;;;;;;;13.50;12.50;;;;;30.16;47.53;100509.47;146617;664;46016;-70
2022/09/16 07:24:15;;;;;;;;;11.50;10.00;;;;;30.28;46.75;100509.09;146619;689;47020;-70
2022/09/16 07:27:15;;;;;;;;;12.75;10.75;;;;;30.41;47.30;100500.66;146616;628;46017;-70
2022/09/16 07:30:23;;;;;;;;;13.75;12.00;;;;;30.50;46.89;100498.53;146622;671;46020;-71
2022/09/16 07:33:18;;;;;;;;;13.25;12.00;;;;;30.55;47.03;100495.69;146616;604;46918;-72
2022/09/16 07:36:17;;;;;;;;;12.25;12.00;;;;;30.59;46.69;100497.31;146618;602;47020;-71
2022/09/16 07:39:15;;;;;;;;;11.25;9.75;;;;;30.68;46.79;100488.09;146616;629;46918;-71
2022/09/16 07:42:21;;;;;;;;;11.25;9.75;;;;;30.74;47.18;100491.41;146628;597;46021;-72
2022/09/16 07:45:20;;;;;;;;;9.25;7.50;;;;;30.82;45.72;100500.09;146619;624;46012;-71
2022/09/16 07:48:19;;;;;;;;;11.50;10.50;;;;;30.82;45.97;100494.75;146629;569;46011;-72
2022/09/16 07:51:29;;;;;;;;;10.00;10.00;;;;;30.85;45.40;100498.25;146617;639;46016;-72
2022/09/16 07:54:24;;;;;;;;;8.75;8.75;;;;;30.87;45.53;100489.19;146623;626;46031;-71
2022/09/16 07:57:21;;;;;;;;;9.25;9.25;;;;;30.94;44.81;100485.41;146621;664;47016;-70
2022/09/16 08:00:21;;;;;;;;;8.75;8.75;;;;;31.03;45.00;100487.72;146627;579;46020;-71
2022/09/16 08:03:15;;;;;;;;;8.50;7.75;;;;;31.09;43.87;100483.94;146626;650;46016;-70
2022/09/16 08:06:19;;;;;;;;;9.33;8.67;;;;;31.07;45.27;100475.09;146646;590;45012;-71
2022/09/16 08:09:14;;;;;;;;;11.00;10.00;;;;;31.15;44.12;100474.78;146642;612;46012;-71
2022/09/16 08:11:52;;;;;;;;;8.00;7.00;;;;;31.14;43.49;100473.06;146710;571;46012;-71
2022/09/16 08:14:49;;;;;;;;;10.75;8.75;;;;;31.09;44.57;100467.84;146624;567;46016;-71
2022/09/16 08:17:56;;;;;;;;;;;;;;;;;;;;;
2022/09/16 08:20:53;;;;;;;;;8.75;8.00;;;;;31.36;44.48;100467.78;146619;665;46016;-72
2022/09/16 08:23:57;;;;;;;;;11.25;10.25;;;;;30.87;45.03;100335.75;146619;582;46021;-72
2022/09/16 08:27:03;;;;;;;;;8.75;7.50;;;;;31.78;44.18;100458.94;146611;677;46016;-72
2022/09/16 08:29:42;;;;;;;;;9.25;8.50;;;;;31.83;42.80;100452.47;146701;569;46012;-72
2022/09/16 08:32:47;;;;;;;;;8.00;8.00;;;;;31.78;43.10;100448.22;146620;626;46012;-71
2022/09/16 08:35:53;;;;;;;;;9.00;9.00;;;;;31.75;42.83;100454.59;146623;632;46012;-72
2022/09/16 08:39:11;;;;;;;;;;;;;;;;;;;;;
2022/09/16 08:42:44;;;;;;;;;7.75;7.75;;;;;32.02;42.89;100452.59;146623;663;46020;-72
2022/09/16 08:46:14;;;;;;;;;9.00;7.75;;;;;32.27;42.72;100451.56;146620;664;46917;-72
2022/09/16 08:49:42;;;;;;;;;10.00;10.00;;;;;32.41;42.73;100441.97;146622;648;46020;-72
2022/09/16 08:52:55;;;;;;;;;13.75;11.00;;;;;32.52;41.36;100438.84;146618;675;46016;-71
2022/09/16 08:55:56;;;;;;;;;10.00;8.75;;;;;32.52;41.20;100446.03;146625;723;46010;-72
2022/09/16 08:58:59;;;;;;;;;11.25;9.75;;;;;32.52;41.76;100440.66;146618;623;46917;-74
2022/09/16 09:02:21;;;;;;;;;8.00;7.75;;;;;32.55;42.20;100435.16;146621;633;46021;-72
2022/09/16 09:05:49;;;;;;;;;11.75;10.50;;;;;32.59;42.37;100426.06;146616;564;46038;-72
2022/09/16 09:09:10;;;;;;;;;10.25;10.00;;;;;32.63;42.07;100423.16;146622;607;46020;-70
2022/09/16 09:12:22;;;;;;;;;9.25;8.25;;;;;32.66;41.80;100414.97;146616;600;46915;-72
2022/09/16 09:15:52;;;;;;;;;10.25;9.75;;;;;32.69;42.75;100416.63;146622;579;46010;-72
2022/09/16 09:19:20;;;;;;;;;12.00;12.00;;;;;32.69;44.05;100407.72;146618;598;46016;-70
2022/09/16 09:22:53;;;;;;;;;11.25;11.25;;;;;32.73;43.76;100407.50;146618;566;47010;-72
2022/09/16 09:26:28;;;;;;;;;13.25;10.25;;;;;32.82;44.17;100409.75;146619;686;46016;-72
2022/09/16 09:29:58;;;;;;;;;11.50;11.50;;;;;32.90;43.78;100414.78;146617;572;46021;-72
2022/09/16 09:33:32;;;;;;;;;12.00;11.75;;;;;32.98;43.61;100407.25;146619;574;46012;-70
2022/09/16 09:37:08;;;;;;;;;13.00;11.50;;;;;33.05;43.35;100408.69;146619;598;46021;-73
2022/09/16 09:40:38;;;;;;;;;11.25;11.00;;;;;33.24;42.47;100413.19;146616;569;46016;-72
2022/09/16 09:44:06;;;;;;;;;9.75;9.75;;;;;33.39;41.97;100403.53;146622;564;46013;-71
2022/09/16 09:47:09;;;;;;;;;11.75;11.00;;;;;33.51;40.45;100393.09;146618;619;46915;-73
2022/09/16 09:50:26;;;;;;;;;10.00;9.75;;;;;32.48;40.69;100190.34;146624;652;46010;-72
2022/09/16 09:53:45;;;;;;;;;8.75;8.75;;;;;33.73;40.51;100392.87;146617;656;46012;-73
2022/09/16 09:56:44;;;;;;;;;12.75;11.50;;;;;33.79;40.53;100389.91;146620;565;46020;-74
2022/09/16 10:00:09;;;;;;;;;12.75;9.75;;;;;33.91;40.80;100384.84;146618;574;46013;-73
2022/09/16 10:03:51;;;;;;;;;11.50;10.50;;;;;33.45;40.03;100279.59;146623;640;46012;-72
2022/09/16 10:06:57;;;;;;;;;9.75;9.75;;;;;34.17;39.91;100386.22;146617;683;46018;-73
2022/09/16 10:10:21;;;;;;;;;12.00;11.00;;;;;34.24;39.90;100380.44;146624;644;46010;-72
2022/09/16 10:13:51;;;;;;;;;11.75;10.75;;;;;34.26;40.52;100378.53;146618;660;46015;-74
2022/09/16 10:16:55;;;;;;;;;8.75;8.25;;;;;34.30;39.54;100376.56;146620;669;46020;-71
2022/09/16 10:20:12;;;;;;;;;10.25;9.50;;;;;34.31;38.91;100375.59;146618;651;46016;-70
2022/09/16 10:23:30;;;;;;;;;9.00;7.00;;;;;34.37;37.19;100380.66;146622;639;47008;-72
2022/09/16 10:26:28;;;;;;;;;11.50;10.50;;;;;34.36;38.68;100369.97;146618;569;46016;-71
2022/09/16 10:29:29;;;;;;;;;7.75;7.75;;;;;34.35;38.14;100369.09;146621;579;46011;-74
2022/09/16 10:32:31;;;;;;;;;11.75;10.00;;;;;34.32;39.73;100371.97;146621;565;46012;-72
2022/09/16 10:35:47;;;;;;;;;;;;;;;;;;;;;
2022/09/16 10:39:09;;;;;;;;;9.75;8.75;;;;;34.56;40.24;100358.19;146619;606;46012;-72
2022/09/16 10:42:05;;;;;;;;;12.75;11.50;;;;;34.67;39.89;100355.75;146624;574;46010;-71
2022/09/16 10:45:22;;;;;;;;;11.25;11.25;;;;;34.78;40.13;100353.34;146615;702;46017;-71
2022/09/16 10:48:23;;;;;;;;;10.25;9.50;;;;;34.93;40.37;100359.72;146621;693;46020;-71
2022/09/16 10:51:28;;;;;;;;;10.50;9.00;;;;;35.07;39.29;100349.03;146615;576;46017;-72
2022/09/16 10:54:31;;;;;;;;;9.25;9.25;;;;;35.09;39.68;100333.66;146620;671;46020;-71
2022/09/16 10:57:44;;;;;;;;;9.50;9.50;;;;;35.05;38.91;100337.50;146618;597;46016;-72
2022/09/16 11:00:54;;;;;;;;;10.50;8.50;;;;;35.06;37.88;100335.69;146621;711;46023;-74
2022/09/16 11:04:28;;;;;;;;;11.25;10.50;;;;;34.85;38.79;100321.53;146618;700;46016;-73
2022/09/16 11:08:01;;;;;;;;;13.00;10.75;;;;;34.65;36.73;100315.47;146620;580;46021;-73
2022/09/16 11:11:51;;;;;;;;;13.25;12.00;;;;;33.73;37.36;100191.22;146621;579;46012;-72
2022/09/16 11:15:27;;;;;;;;;11.75;10.50;;;;;34.09;37.86;100305.06;146624;586;46010;-72
2022/09/16 11:18:41;;;;;;;;;10.75;10.25;;;;;33.92;37.87;100308.59;146617;576;46016;-74
2022/09/16 11:22:29;;;;;;;;;7.75;7.25;;;;;33.85;36.74;100296.41;146620;604;46021;-71
2022/09/16 11:26:09;;;;;;;;;8.25;7.75;;;;;33.69;38.15;100264.06;146613;692;48915;-72
2022/09/16 11:29:43;;;;;;;;;8.25;8.00;;;;;33.89;39.12;100287.22;146624;632;46011;-72
2022/09/16 11:33:22;;;;;;;;;10.75;9.75;;;;;34.02;38.29;100283.84;146622;683;46012;-73
2022/09/16 11:37:14;;;;;;;;;8.00;8.00;;;;;33.99;37.77;100280.44;146622;601;46030;-73
2022/09/16 11:40:55;;;;;;;;;7.25;7.00;;;;;33.86;38.94;100282.00;146620;612;46016;-72
2022/09/16 11:44:44;;;;;;;;;8.75;8.50;;;;;33.82;38.08;100281.31;146622;687;46010;-72
2022/09/16 11:48:20;;;;;;;;;8.75;8.00;;;;;32.95;37.90;100146.00;146618;606;46012;-71
2022/09/16 11:51:53;;;;;;;;;8.50;7.25;;;;;33.68;38.80;100256.97;146622;702;46010;-73
2022/09/16 11:55:25;;;;;;;;;10.25;8.00;;;;;33.06;36.32;100133.81;146618;731;46016;-72
2022/09/16 11:59:06;;;;;;;;;9.25;8.00;;;;;33.70;37.31;100238.91;146623;685;46010;-73
2022/09/16 12:02:54;;;;;;;;;8.75;8.75;;;;;33.61;34.71;100234.88;146618;576;46016;-70
2022/09/16 12:06:11;;;;;;;;;7.75;7.75;;;;;33.64;36.96;100228.50;146623;618;46012;-74
2022/09/16 12:09:23;;;;;;;;;11.00;9.50;;;;;33.65;34.19;100203.37;146619;704;46016;-73
2022/09/16 12:12:27;;;;;;;;;8.00;8.00;;;;;33.73;36.41;100217.25;146623;682;47010;-73
2022/09/16 12:15:32;;;;;;;;;8.00;7.00;;;;;33.79;35.89;100209.72;146621;569;46014;-73
2022/09/16 12:18:47;;;;;;;;;6.00;6.00;;;;;33.80;36.41;100200.72;146624;703;46010;-70
2022/09/16 12:22:15;;;;;;;;;7.25;6.50;;;;;33.90;36.88;100209.16;146619;565;46016;-72
2022/09/16 12:25:39;;;;;;;;;5.75;5.75;;;;;33.94;33.53;100199.97;146622;574;46020;-71
2022/09/16 12:28:54;;;;;;;;;7.75;7.75;;;;;33.99;36.33;100205.97;146620;575;46013;-71
2022/09/16 12:32:14;;;;;;;;;10.50;7.50;;;;;33.95;35.51;100192.75;146622;613;46020;-73
2022/09/16 12:35:39;;;;;;;;;6.25;5.25;;;;;33.84;32.45;100192.50;146618;605;46018;-72
2022/09/16 12:38:33;;;;;;;;;6.00;6.00;;;;;33.72;32.70;100189.50;146623;666;47012;-71
2022/09/16 12:42:32;;;;;;;;;;;;;;;;;;;;;
2022/09/16 12:46:05;;;;;;;;;7.50;6.00;;;;;33.40;33.14;100180.41;146622;580;46012;-73
2022/09/16 12:49:38;;;;;;;;;5.33;5.33;;;;;33.34;33.80;100176.22;146617;573;46913;-71
2022/09/16 12:53:13;;;;;;;;;5.75;4.75;;;;;33.34;31.41;100178.06;146622;604;46021;-72
2022/09/16 12:56:44;;;;;;;;;5.00;5.00;;;;;33.38;32.56;100185.00;146619;678;46016;-71
2022/09/16 12:59:52;;;;;;;;;5.00;5.00;;;;;33.42;30.79;100185.69;146707;566;46023;-70
2022/09/16 13:03:11;;;;;;;;;7.00;5.00;;;;;33.30;33.00;100149.56;146619;563;46014;-73
2022/09/16 13:06:17;;;;;;;;;6.50;5.00;;;;;33.37;32.58;100163.59;146613;673;47013;-72
2022/09/16 13:09:24;;;;;;;;;6.00;5.00;;;;;33.39;31.47;100161.66;146610;651;46016;-72
2022/09/16 13:12:35;;;;;;;;;6.50;6.25;;;;;33.40;33.34;100161.59;146618;694;46010;-71
2022/09/16 13:15:37;;;;;;;;;5.00;5.00;;;;;33.42;30.61;100162.37;146696;588;46032;-71
2022/09/16 13:19:06;;;;;;;;;6.00;5.75;;;;;33.53;33.28;100159.16;146611;582;46025;-67
2022/09/16 13:22:06;;;;;;;;;7.75;6.00;;;;;33.72;33.24;100161.75;146617;627;46022;-71
2022/09/16 13:25:26;;;;;;;;;6.00;6.00;;;;;33.93;33.26;100163.28;146611;602;46016;-68
2022/09/16 13:28:48;;;;;;;;;7.25;7.25;;;;;34.16;33.82;100162.03;146617;665;46011;-68
2022/09/16 13:32:00;;;;;;;;;5.25;5.25;;;;;34.32;33.91;100172.78;146610;589;46016;-69
2022/09/16 13:35:37;;;;;;;;;4.75;4.75;;;;;34.45;33.29;100173.84;146616;567;46020;-70
2022/09/16 13:38:49;;;;;;;;;6.00;6.00;;;;;34.56;33.86;100167.88;146609;643;47012;-68
2022/09/16 13:41:50;;;;;;;;;7.00;6.00;;;;;34.65;33.19;100170.06;146616;593;46020;-70
2022/09/16 13:45:04;;;;;;;;;5.75;5.25;;;;;34.69;32.95;100163.53;146609;617;46017;-69
2022/09/16 13:48:00;;;;;;;;;6.25;5.50;;;;;34.71;32.79;100160.75;146614;573;46020;-68
2022/09/16 13:51:03;;;;;;;;;7.25;5.25;;;;;34.71;33.02;100160.75;146610;582;46016;-68
2022/09/16 13:54:28;;;;;;;;;4.75;3.25;;;;;34.73;33.12;100153.44;146614;626;46020;-68
2022/09/16 13:57:44;;;;;;;;;5.50;5.50;;;;;34.76;32.42;100155.09;146613;585;46017;-68
2022/09/16 14:01:24;;;;;;;;;7.00;5.00;;;;;34.67;32.56;100156.47;146618;581;46030;-66
2022/09/16 14:04:54;;;;;;;;;4.75;4.75;;;;;34.48;31.16;100143.19;146609;580;47014;-69
2022/09/16 14:08:25;;;;;;;;;6.33;5.00;;;;;34.34;31.86;100151.19;146616;643;46021;-70
2022/09/16 14:12:01;;;;;;;;;7.00;6.00;;;;;34.15;31.45;100138.78;146612;568;46914;-68
2022/09/16 14:14:54;;;;;;;;;5.25;5.25;;;;;34.04;30.97;100138.50;146613;570;47010;-74
2022/09/16 14:18:18;;;;;;;;;6.00;4.75;;;;;33.98;34.17;100134.28;146611;696;46916;-69
2022/09/16 14:21:25;;;;;;;;;8.25;6.75;;;;;34.00;33.76;100129.69;146613;626;47010;-69
2022/09/16 14:24:23;;;;;;;;;8.00;7.00;;;;;34.02;33.51;100133.22;146612;661;46016;-68
2022/09/16 14:27:42;;;;;;;;;6.75;5.00;;;;;34.05;34.20;100125.91;146617;598;46015;-69
2022/09/16 14:30:39;;;;;;;;;8.50;6.50;;;;;34.10;33.62;100131.91;146612;654;47012;-70
2022/09/16 14:34:08;;;;;;;;;9.50;9.50;;;;;34.13;35.88;100126.34;146614;580;47014;-68
2022/09/16 14:37:04;;;;;;;;;8.00;8.00;;;;;34.17;36.38;100131.47;146612;602;46016;-69
2022/09/16 14:40:04;;;;;;;;;8.50;8.50;;;;;34.16;36.78;100128.87;146615;645;47010;-68
2022/09/16 14:43:13;;;;;;;;;9.00;8.00;;;;;34.15;37.11;100132.53;146612;653;46017;-69
2022/09/16 14:46:17;;;;;;;;;9.00;8.75;;;;;34.15;37.26;100128.00;146614;742;47010;-72
2022/09/16 14:49:23;;;;;;;;;12.50;9.25;;;;;34.12;37.07;100121.94;146609;578;47014;-70
2022/09/16 14:52:36;;;;;;;;;7.50;7.50;;;;;34.07;37.56;100127.56;146709;589;46013;-69